sensor_id;sensor_type;location;lat;lon;timestamp;pressure;altitude;pressure_sealevel;temperature;humidity
59009;BME280;44794;42.652;23.318;2023-04-30T00:02:07;94170.91;;;9.01;96.92
59009;BME280;44794;42.652;23.318;2023-04-30T00:04:32;94176.53;;;8.95;97.04
59009;BME280;44794;42.652;23.318;2023-04-30T00:06:58;94172.97;;;8.85;97.23
59009;BME280;44794;42.652;23.318;2023-04-30T00:09:23;94174.13;;;8.81;97.80
59009;BME280;44794;42.652;23.318;2023-04-30T00:11:48;94172.94;;;8.74;98.22
59009;BME280;44794;42.652;23.318;2023-04-30T00:14:14;94165.84;;;8.65;98.82
59009;BME280;44794;42.652;23.318;2023-04-30T00:16:40;94167.22;;;8.58;99.27
59009;BME280;44794;42.652;23.318;2023-04-30T00:19:05;94165.56;;;8.57;99.70
59009;BME280;44794;42.652;23.318;2023-04-30T00:21:31;94168.53;;;8.53;99.84
59009;BME280;44794;42.652;23.318;2023-04-30T00:23:57;94162.84;;;8.48;99.94
59009;BME280;44794;42.652;23.318;2023-04-30T00:26:24;94164.13;;;8.42;100.00
59009;BME280;44794;42.652;23.318;2023-04-30T00:28:50;94156.16;;;8.33;100.00
59009;BME280;44794;42.652;23.318;2023-04-30T00:31:15;94155.97;;;8.36;100.00
59009;BME280;44794;42.652;23.318;2023-04-30T00:33:41;94161.78;;;8.27;100.00
59009;BME280;44794;42.652;23.318;2023-04-30T00:36:06;94159.66;;;8.21;100.00
59009;BME280;44794;42.652;23.318;2023-04-30T00:38:32;94162.69;;;8.15;100.00
59009;BME280;44794;42.652;23.318;2023-04-30T00:40:57;94157.78;;;8.11;100.00
59009;BME280;44794;42.652;23.318;2023-04-30T00:43:23;94155.84;;;8.02;100.00
59009;BME280;44794;42.652;23.318;2023-04-30T00:45:48;94153.28;;;8.02;100.00
59009;BME280;44794;42.652;23.318;2023-04-30T00:48:14;94152.47;;;8.01;100.00
59009;BME280;44794;42.652;23.318;2023-04-30T00:50:40;94147.50;;;7.98;100.00
59009;BME280;44794;42.652;23.318;2023-04-30T00:53:10;94141.31;;;8.01;100.00
59009;BME280;44794;42.652;23.318;2023-04-30T00:55:36;94145.50;;;8.02;100.00
59009;BME280;44794;42.652;23.318;2023-04-30T00:58:02;94143.88;;;8.01;100.00
59009;BME280;44794;42.652;23.318;2023-04-30T01:00:28;94144.91;;;7.98;100.00
59009;BME280;44794;42.652;23.318;2023-04-30T01:02:54;94149.06;;;8.01;100.00
59009;BME280;44794;42.652;23.318;2023-04-30T01:05:21;94146.88;;;7.95;100.00
59009;BME280;44794;42.652;23.318;2023-04-30T01:07:47;94143.59;;;7.93;100.00
59009;BME280;44794;42.652;23.318;2023-04-30T01:10:14;94143.94;;;7.88;100.00
59009;BME280;44794;42.652;23.318;2023-04-30T01:13:04;94143.44;;;7.83;100.00
59009;BME280;44794;42.652;23.318;2023-04-30T01:18:40;94141.38;;;7.76;100.00
59009;BME280;44794;42.652;23.318;2023-04-30T01:21:08;94142.72;;;7.69;100.00
59009;BME280;44794;42.652;23.318;2023-04-30T01:26:19;94138.19;;;7.60;100.00
59009;BME280;44794;42.652;23.318;2023-04-30T01:28:52;94140.28;;;7.55;100.00
59009;BME280;44794;42.652;23.318;2023-04-30T01:31:18;94141.34;;;7.40;100.00
59009;BME280;44794;42.652;23.318;2023-04-30T01:33:44;94130.63;;;7.34;100.00
59009;BME280;44794;42.652;23.318;2023-04-30T01:36:25;94134.00;;;7.22;100.00
59009;BME280;44794;42.652;23.318;2023-04-30T01:38:59;94140.75;;;7.24;100.00
59009;BME280;44794;42.652;23.318;2023-04-30T01:44:33;94140.75;;;7.12;100.00
59009;BME280;44794;42.652;23.318;2023-04-30T01:47:08;94134.34;;;7.17;100.00
59009;BME280;44794;42.652;23.318;2023-04-30T01:52:11;94126.31;;;7.09;100.00
59009;BME280;44794;42.652;23.318;2023-04-30T01:57:29;94131.66;;;7.19;100.00
59009;BME280;44794;42.652;23.318;2023-04-30T01:59:56;94143.41;;;7.23;100.00
59009;BME280;44794;42.652;23.318;2023-04-30T02:02:22;94139.59;;;7.28;100.00
59009;BME280;44794;42.652;23.318;2023-04-30T02:04:47;94136.09;;;7.29;100.00
59009;BME280;44794;42.652;23.318;2023-04-30T02:07:20;94144.34;;;7.34;100.00
59009;BME280;44794;42.652;23.318;2023-04-30T02:09:52;94140.72;;;7.37;100.00
59009;BME280;44794;42.652;23.318;2023-04-30T02:12:17;94143.00;;;7.41;100.00
59009;BME280;44794;42.652;23.318;2023-04-30T02:14:43;94139.16;;;7.46;100.00
59009;BME280;44794;42.652;23.318;2023-04-30T02:17:08;94139.66;;;7.51;100.00
59009;BME280;44794;42.652;23.318;2023-04-30T02:19:34;94139.47;;;7.54;100.00
59009;BME280;44794;42.652;23.318;2023-04-30T02:21:59;94136.03;;;7.54;100.00
59009;BME280;44794;42.652;23.318;2023-04-30T02:24:25;94135.13;;;7.55;100.00
59009;BME280;44794;42.652;23.318;2023-04-30T02:26:50;94138.31;;;7.58;100.00
59009;BME280;44794;42.652;23.318;2023-04-30T02:29:15;94144.72;;;7.53;100.00
59009;BME280;44794;42.652;23.318;2023-04-30T02:31:41;94138.44;;;7.57;100.00
59009;BME280;44794;42.652;23.318;2023-04-30T02:34:07;94136.78;;;7.56;100.00
59009;BME280;44794;42.652;23.318;2023-04-30T02:36:32;94132.09;;;7.61;100.00
59009;BME280;44794;42.652;23.318;2023-04-30T02:39:00;94142.97;;;7.66;100.00
59009;BME280;44794;42.652;23.318;2023-04-30T02:41:26;94138.41;;;7.69;100.00
59009;BME280;44794;42.652;23.318;2023-04-30T02:43:51;94140.63;;;7.74;100.00
59009;BME280;44794;42.652;23.318;2023-04-30T02:46:17;94141.16;;;7.79;100.00
59009;BME280;44794;42.652;23.318;2023-04-30T02:48:43;94149.53;;;7.82;100.00
59009;BME280;44794;42.652;23.318;2023-04-30T02:51:08;94144.66;;;7.90;100.00
59009;BME280;44794;42.652;23.318;2023-04-30T02:53:34;94154.63;;;7.95;100.00
59009;BME280;44794;42.652;23.318;2023-04-30T02:55:59;94148.22;;;8.00;100.00
59009;BME280;44794;42.652;23.318;2023-04-30T02:58:25;94155.44;;;8.08;100.00
59009;BME280;44794;42.652;23.318;2023-04-30T03:00:50;94166.69;;;8.19;100.00
59009;BME280;44794;42.652;23.318;2023-04-30T03:03:16;94159.31;;;8.25;100.00
59009;BME280;44794;42.652;23.318;2023-04-30T03:05:41;94160.31;;;8.35;100.00
59009;BME280;44794;42.652;23.318;2023-04-30T03:08:07;94170.44;;;8.38;100.00
59009;BME280;44794;42.652;23.318;2023-04-30T03:10:32;94169.19;;;8.44;100.00
59009;BME280;44794;42.652;23.318;2023-04-30T03:12:57;94172.38;;;8.47;100.00
59009;BME280;44794;42.652;23.318;2023-04-30T03:15:23;94173.69;;;8.53;100.00
59009;BME280;44794;42.652;23.318;2023-04-30T03:17:48;94176.88;;;8.56;100.00
59009;BME280;44794;42.652;23.318;2023-04-30T03:20:13;94175.84;;;8.59;100.00
59009;BME280;44794;42.652;23.318;2023-04-30T03:22:39;94185.13;;;8.61;100.00
59009;BME280;44794;42.652;23.318;2023-04-30T03:25:05;94187.28;;;8.67;100.00
59009;BME280;44794;42.652;23.318;2023-04-30T03:27:31;94197.19;;;8.73;99.56
59009;BME280;44794;42.652;23.318;2023-04-30T03:29:56;94187.28;;;8.78;99.08
59009;BME280;44794;42.652;23.318;2023-04-30T03:32:21;94191.53;;;8.79;99.05
59009;BME280;44794;42.652;23.318;2023-04-30T03:34:47;94183.84;;;8.90;99.58
59009;BME280;44794;42.652;23.318;2023-04-30T03:37:12;94187.34;;;8.89;98.93
59009;BME280;44794;42.652;23.318;2023-04-30T03:39:38;94195.59;;;8.94;99.25
59009;BME280;44794;42.652;23.318;2023-04-30T03:42:03;94192.78;;;8.97;99.14
59009;BME280;44794;42.652;23.318;2023-04-30T03:44:28;94203.63;;;9.02;99.05
59009;BME280;44794;42.652;23.318;2023-04-30T03:46:54;94211.53;;;9.11;98.18
59009;BME280;44794;42.652;23.318;2023-04-30T03:49:19;94209.09;;;9.21;97.78
59009;BME280;44794;42.652;23.318;2023-04-30T03:51:45;94215.47;;;9.28;96.95
59009;BME280;44794;42.652;23.318;2023-04-30T03:54:16;94219.97;;;9.37;96.36
59009;BME280;44794;42.652;23.318;2023-04-30T03:56:42;94221.88;;;9.46;95.02
59009;BME280;44794;42.652;23.318;2023-04-30T03:59:08;94225.75;;;9.51;94.45
59009;BME280;44794;42.652;23.318;2023-04-30T04:01:34;94227.06;;;9.57;93.63
59009;BME280;44794;42.652;23.318;2023-04-30T04:03:59;94220.00;;;9.59;93.29
59009;BME280;44794;42.652;23.318;2023-04-30T04:06:25;94230.03;;;9.63;93.15
59009;BME280;44794;42.652;23.318;2023-04-30T04:08:50;94236.06;;;9.74;92.91
59009;BME280;44794;42.652;23.318;2023-04-30T04:11:16;94238.97;;;9.81;92.56
59009;BME280;44794;42.652;23.318;2023-04-30T04:13:41;94243.59;;;9.88;91.13
59009;BME280;44794;42.652;23.318;2023-04-30T04:16:07;94247.38;;;9.95;90.56
59009;BME280;44794;42.652;23.318;2023-04-30T04:18:33;94246.69;;;10.04;90.36
59009;BME280;44794;42.652;23.318;2023-04-30T04:20:59;94246.69;;;10.15;90.36
59009;BME280;44794;42.652;23.318;2023-04-30T04:23:25;94254.22;;;10.29;89.95
59009;BME280;44794;42.652;23.318;2023-04-30T04:25:51;94249.28;;;10.37;89.71
59009;BME280;44794;42.652;23.318;2023-04-30T04:28:17;94250.44;;;10.44;90.25
59009;BME280;44794;42.652;23.318;2023-04-30T04:30:42;94257.69;;;10.72;89.28
59009;BME280;44794;42.652;23.318;2023-04-30T04:33:08;94255.22;;;11.02;88.25
59009;BME280;44794;42.652;23.318;2023-04-30T04:35:34;94265.50;;;11.34;87.04
59009;BME280;44794;42.652;23.318;2023-04-30T04:38:00;94260.06;;;11.58;85.05
59009;BME280;44794;42.652;23.318;2023-04-30T04:40:26;94271.88;;;11.82;83.78
59009;BME280;44794;42.652;23.318;2023-04-30T04:42:51;94281.66;;;11.99;82.30
59009;BME280;44794;42.652;23.318;2023-04-30T04:45:17;94283.13;;;12.12;81.33
59009;BME280;44794;42.652;23.318;2023-04-30T04:47:45;94286.53;;;12.13;80.23
59009;BME280;44794;42.652;23.318;2023-04-30T04:50:11;94293.63;;;12.31;79.32
59009;BME280;44794;42.652;23.318;2023-04-30T04:52:37;94293.66;;;12.41;79.15
59009;BME280;44794;42.652;23.318;2023-04-30T04:55:03;94296.25;;;12.41;78.78
59009;BME280;44794;42.652;23.318;2023-04-30T04:57:29;94305.13;;;12.29;78.63
59009;BME280;44794;42.652;23.318;2023-04-30T04:59:55;94295.53;;;12.29;78.82
59009;BME280;44794;42.652;23.318;2023-04-30T05:02:21;94299.72;;;12.21;79.14
59009;BME280;44794;42.652;23.318;2023-04-30T05:04:48;94298.25;;;12.28;79.08
59009;BME280;44794;42.652;23.318;2023-04-30T05:07:16;94299.38;;;12.35;78.13
59009;BME280;44794;42.652;23.318;2023-04-30T05:09:42;94302.69;;;12.37;77.51
59009;BME280;44794;42.652;23.318;2023-04-30T05:12:07;94298.53;;;12.25;78.94
59009;BME280;44794;42.652;23.318;2023-04-30T05:14:32;94289.50;;;12.29;80.58
59009;BME280;44794;42.652;23.318;2023-04-30T05:16:58;94299.06;;;12.19;80.35
59009;BME280;44794;42.652;23.318;2023-04-30T05:19:23;94303.69;;;12.15;80.46
59009;BME280;44794;42.652;23.318;2023-04-30T05:21:49;94295.94;;;12.25;81.03
59009;BME280;44794;42.652;23.318;2023-04-30T05:24:15;94298.81;;;12.31;80.90
59009;BME280;44794;42.652;23.318;2023-04-30T05:26:41;94299.28;;;12.36;79.35
59009;BME280;44794;42.652;23.318;2023-04-30T05:29:06;94298.78;;;12.52;78.23
59009;BME280;44794;42.652;23.318;2023-04-30T05:31:31;94305.69;;;12.62;78.11
59009;BME280;44794;42.652;23.318;2023-04-30T05:33:57;94304.59;;;12.65;77.10
59009;BME280;44794;42.652;23.318;2023-04-30T05:36:22;94313.94;;;12.76;76.39
59009;BME280;44794;42.652;23.318;2023-04-30T05:38:48;94314.44;;;12.91;75.27
59009;BME280;44794;42.652;23.318;2023-04-30T05:41:13;94309.25;;;13.00;74.78
59009;BME280;44794;42.652;23.318;2023-04-30T05:43:39;94316.13;;;13.20;74.30
59009;BME280;44794;42.652;23.318;2023-04-30T05:46:04;94313.53;;;13.39;73.23
59009;BME280;44794;42.652;23.318;2023-04-30T05:48:30;94316.13;;;13.11;72.33
59009;BME280;44794;42.652;23.318;2023-04-30T05:50:55;94316.13;;;13.11;72.63
59009;BME280;44794;42.652;23.318;2023-04-30T05:53:21;94315.00;;;12.94;73.38
59009;BME280;44794;42.652;23.318;2023-04-30T05:55:46;94316.91;;;13.02;72.78
59009;BME280;44794;42.652;23.318;2023-04-30T05:58:12;94310.78;;;13.22;72.76
59009;BME280;44794;42.652;23.318;2023-04-30T06:00:37;94307.91;;;13.34;72.69
59009;BME280;44794;42.652;23.318;2023-04-30T06:03:03;94323.56;;;13.53;72.22
59009;BME280;44794;42.652;23.318;2023-04-30T06:05:28;94328.81;;;13.72;71.17
59009;BME280;44794;42.652;23.318;2023-04-30T06:07:54;94325.63;;;13.97;70.37
59009;BME280;44794;42.652;23.318;2023-04-30T06:10:19;94325.59;;;14.16;69.06
59009;BME280;44794;42.652;23.318;2023-04-30T06:12:45;94329.81;;;14.35;67.72
59009;BME280;44794;42.652;23.318;2023-04-30T06:15:10;94331.69;;;14.52;67.10
59009;BME280;44794;42.652;23.318;2023-04-30T06:17:36;94336.63;;;14.65;66.16
59009;BME280;44794;42.652;23.318;2023-04-30T06:20:02;94336.97;;;14.79;65.53
59009;BME280;44794;42.652;23.318;2023-04-30T06:22:31;94341.97;;;15.00;64.16
59009;BME280;44794;42.652;23.318;2023-04-30T06:24:57;94342.66;;;15.28;63.53
59009;BME280;44794;42.652;23.318;2023-04-30T06:27:23;94346.56;;;15.59;62.13
59009;BME280;44794;42.652;23.318;2023-04-30T06:29:49;94343.84;;;15.61;61.18
59009;BME280;44794;42.652;23.318;2023-04-30T06:32:14;94349.41;;;15.48;61.34
59009;BME280;44794;42.652;23.318;2023-04-30T06:34:39;94344.56;;;15.53;60.70
59009;BME280;44794;42.652;23.318;2023-04-30T06:37:05;94349.59;;;15.47;60.27
59009;BME280;44794;42.652;23.318;2023-04-30T06:39:32;94350.09;;;15.33;61.55
59009;BME280;44794;42.652;23.318;2023-04-30T06:41:57;94356.31;;;15.49;60.20
59009;BME280;44794;42.652;23.318;2023-04-30T06:44:26;94347.16;;;15.53;60.52
59009;BME280;44794;42.652;23.318;2023-04-30T06:46:57;94355.56;;;16.52;58.21
59009;BME280;44794;42.652;23.318;2023-04-30T06:49:23;94375.28;;;18.52;51.50
59009;BME280;44794;42.652;23.318;2023-04-30T06:51:48;94372.06;;;19.20;48.47
59009;BME280;44794;42.652;23.318;2023-04-30T06:54:13;94386.25;;;19.50;46.52
59009;BME280;44794;42.652;23.318;2023-04-30T06:56:40;94385.31;;;19.43;45.27
59009;BME280;44794;42.652;23.318;2023-04-30T06:59:05;94379.16;;;20.19;43.92
59009;BME280;44794;42.652;23.318;2023-04-30T07:01:31;94377.16;;;19.90;44.58
59009;BME280;44794;42.652;23.318;2023-04-30T07:03:57;94376.22;;;20.36;43.70
59009;BME280;44794;42.652;23.318;2023-04-30T07:06:23;94381.47;;;20.58;42.83
59009;BME280;44794;42.652;23.318;2023-04-30T07:08:48;94372.06;;;20.41;43.71
59009;BME280;44794;42.652;23.318;2023-04-30T07:11:14;94369.00;;;19.77;44.29
59009;BME280;44794;42.652;23.318;2023-04-30T07:13:39;94370.97;;;19.75;44.08
59009;BME280;44794;42.652;23.318;2023-04-30T07:16:05;94376.59;;;19.42;44.56
59009;BME280;44794;42.652;23.318;2023-04-30T07:18:33;94376.09;;;18.61;46.70
59009;BME280;44794;42.652;23.318;2023-04-30T07:20:58;94373.63;;;18.43;47.49
59009;BME280;44794;42.652;23.318;2023-04-30T07:23:24;94371.84;;;18.44;47.52
59009;BME280;44794;42.652;23.318;2023-04-30T07:25:49;94370.09;;;17.71;49.39
59009;BME280;44794;42.652;23.318;2023-04-30T07:28:14;94370.41;;;17.60;49.67
59009;BME280;44794;42.652;23.318;2023-04-30T07:30:40;94362.25;;;17.30;50.01
59009;BME280;44794;42.652;23.318;2023-04-30T07:33:05;94361.78;;;16.76;51.16
59009;BME280;44794;42.652;23.318;2023-04-30T07:35:32;94357.34;;;16.43;52.88
59009;BME280;44794;42.652;23.318;2023-04-30T07:37:57;94354.81;;;16.34;54.11
59009;BME280;44794;42.652;23.318;2023-04-30T07:40:23;94358.47;;;16.23;54.36
59009;BME280;44794;42.652;23.318;2023-04-30T07:42:48;94362.88;;;16.05;54.80
59009;BME280;44794;42.652;23.318;2023-04-30T07:45:14;94355.28;;;15.77;56.08
59009;BME280;44794;42.652;23.318;2023-04-30T07:47:39;94360.59;;;16.02;55.70
59009;BME280;44794;42.652;23.318;2023-04-30T07:50:05;94365.16;;;15.83;56.08
59009;BME280;44794;42.652;23.318;2023-04-30T07:52:31;94367.22;;;16.14;56.11
59009;BME280;44794;42.652;23.318;2023-04-30T07:54:57;94364.81;;;16.21;55.16
59009;BME280;44794;42.652;23.318;2023-04-30T07:57:22;94368.91;;;15.98;54.83
59009;BME280;44794;42.652;23.318;2023-04-30T07:59:48;94366.09;;;16.17;54.60
59009;BME280;44794;42.652;23.318;2023-04-30T08:02:13;94373.72;;;16.45;53.50
59009;BME280;44794;42.652;23.318;2023-04-30T08:04:39;94364.25;;;16.77;53.43
59009;BME280;44794;42.652;23.318;2023-04-30T08:07:04;94378.41;;;17.18;51.00
59009;BME280;44794;42.652;23.318;2023-04-30T08:09:30;94375.38;;;17.30;50.78
59009;BME280;44794;42.652;23.318;2023-04-30T08:11:55;94380.03;;;17.44;50.27
59009;BME280;44794;42.652;23.318;2023-04-30T08:14:21;94378.81;;;17.31;50.24
59009;BME280;44794;42.652;23.318;2023-04-30T08:16:46;94387.44;;;17.48;50.08
59009;BME280;44794;42.652;23.318;2023-04-30T08:19:13;94376.75;;;17.17;49.83
59009;BME280;44794;42.652;23.318;2023-04-30T08:21:39;94372.78;;;17.05;51.88
59009;BME280;44794;42.652;23.318;2023-04-30T08:24:04;94380.38;;;17.16;50.88
59009;BME280;44794;42.652;23.318;2023-04-30T08:26:31;94376.41;;;17.12;50.30
59009;BME280;44794;42.652;23.318;2023-04-30T08:28:56;94382.34;;;17.14;50.19
59009;BME280;44794;42.652;23.318;2023-04-30T08:31:22;94381.53;;;16.88;50.52
59009;BME280;44794;42.652;23.318;2023-04-30T08:33:47;94378.03;;;17.05;50.42
59009;BME280;44794;42.652;23.318;2023-04-30T08:36:13;94380.47;;;17.06;50.11
59009;BME280;44794;42.652;23.318;2023-04-30T08:38:38;94382.13;;;17.33;49.09
59009;BME280;44794;42.652;23.318;2023-04-30T08:43:33;94377.34;;;17.28;49.55
59009;BME280;44794;42.652;23.318;2023-04-30T08:45:59;94378.25;;;17.52;48.26
59009;BME280;44794;42.652;23.318;2023-04-30T08:48:27;94380.19;;;17.50;48.09
59009;BME280;44794;42.652;23.318;2023-04-30T08:50:52;94380.81;;;17.86;47.81
59009;BME280;44794;42.652;23.318;2023-04-30T08:53:18;94379.50;;;17.98;46.59
59009;BME280;44794;42.652;23.318;2023-04-30T08:55:46;94378.19;;;18.02;46.35
59009;BME280;44794;42.652;23.318;2023-04-30T08:58:11;94375.63;;;18.33;47.09
59009;BME280;44794;42.652;23.318;2023-04-30T09:00:37;94364.25;;;18.17;46.01
59009;BME280;44794;42.652;23.318;2023-04-30T09:03:06;94366.84;;;17.93;46.07
59009;BME280;44794;42.652;23.318;2023-04-30T09:05:32;94367.50;;;17.30;46.60
59009;BME280;44794;42.652;23.318;2023-04-30T09:07:58;94360.19;;;17.41;46.23
59009;BME280;44794;42.652;23.318;2023-04-30T09:10:24;94367.72;;;17.44;47.37
59009;BME280;44794;42.652;23.318;2023-04-30T09:13:03;94356.69;;;17.08;46.70
59009;BME280;44794;42.652;23.318;2023-04-30T09:15:30;94346.09;;;17.17;46.73
59009;BME280;44794;42.652;23.318;2023-04-30T09:18:16;94351.44;;;17.33;46.21
59009;BME280;44794;42.652;23.318;2023-04-30T09:20:56;94342.66;;;17.58;46.59
59009;BME280;44794;42.652;23.318;2023-04-30T09:23:22;94345.22;;;17.42;46.06
59009;BME280;44794;42.652;23.318;2023-04-30T09:25:48;94343.13;;;17.53;46.21
59009;BME280;44794;42.652;23.318;2023-04-30T09:28:13;94339.91;;;17.91;45.17
59009;BME280;44794;42.652;23.318;2023-04-30T09:30:40;94337.84;;;18.34;44.64
59009;BME280;44794;42.652;23.318;2023-04-30T09:33:05;94325.34;;;19.06;44.21
59009;BME280;44794;42.652;23.318;2023-04-30T09:35:33;94336.63;;;19.31;42.72
59009;BME280;44794;42.652;23.318;2023-04-30T09:38:00;94330.91;;;19.27;41.92
59009;BME280;44794;42.652;23.318;2023-04-30T09:40:37;94328.22;;;19.35;41.68
59009;BME280;44794;42.652;23.318;2023-04-30T09:43:03;94329.16;;;19.12;42.57
59009;BME280;44794;42.652;23.318;2023-04-30T09:45:48;94323.59;;;18.91;42.74
59009;BME280;44794;42.652;23.318;2023-04-30T09:48:24;94317.72;;;18.65;42.62
59009;BME280;44794;42.652;23.318;2023-04-30T09:50:50;94319.06;;;18.45;43.28
59009;BME280;44794;42.652;23.318;2023-04-30T09:53:16;94319.91;;;18.30;44.11
59009;BME280;44794;42.652;23.318;2023-04-30T09:55:46;94312.03;;;18.38;43.93
59009;BME280;44794;42.652;23.318;2023-04-30T09:58:13;94314.66;;;18.38;43.96
59009;BME280;44794;42.652;23.318;2023-04-30T10:00:39;94314.97;;;18.27;43.46
59009;BME280;44794;42.652;23.318;2023-04-30T10:03:05;94315.63;;;18.45;42.88
59009;BME280;44794;42.652;23.318;2023-04-30T10:05:41;94298.47;;;18.81;42.33
59009;BME280;44794;42.652;23.318;2023-04-30T10:08:12;94306.22;;;18.66;41.90
59009;BME280;44794;42.652;23.318;2023-04-30T10:10:42;94298.19;;;18.60;42.29
59009;BME280;44794;42.652;23.318;2023-04-30T10:13:14;94311.13;;;18.77;40.92
59009;BME280;44794;42.652;23.318;2023-04-30T10:15:50;94303.63;;;19.04;41.26
59009;BME280;44794;42.652;23.318;2023-04-30T10:18:22;94305.28;;;19.13;41.42
59009;BME280;44794;42.652;23.318;2023-04-30T10:20:53;94288.38;;;18.30;43.58
59009;BME280;44794;42.652;23.318;2023-04-30T10:23:20;94296.53;;;18.19;44.11
59009;BME280;44794;42.652;23.318;2023-04-30T10:25:46;94300.53;;;18.31;44.02
59009;BME280;44794;42.652;23.318;2023-04-30T10:28:13;94297.06;;;17.91;45.38
59009;BME280;44794;42.652;23.318;2023-04-30T10:30:40;94310.19;;;17.18;47.90
59009;BME280;44794;42.652;23.318;2023-04-30T10:35:59;94318.34;;;16.05;52.60
59009;BME280;44794;42.652;23.318;2023-04-30T10:38:31;94322.47;;;13.27;75.81
59009;BME280;44794;42.652;23.318;2023-04-30T10:41:01;94309.72;;;12.16;86.08
59009;BME280;44794;42.652;23.318;2023-04-30T10:43:29;94280.88;;;11.78;89.81
59009;BME280;44794;42.652;23.318;2023-04-30T10:45:56;94267.84;;;11.78;93.52
59009;BME280;44794;42.652;23.318;2023-04-30T10:48:23;94266.06;;;11.99;91.59
59009;BME280;44794;42.652;23.318;2023-04-30T10:50:55;94262.25;;;12.33;92.49
59009;BME280;44794;42.652;23.318;2023-04-30T10:53:21;94248.69;;;12.78;97.58
59009;BME280;44794;42.652;23.318;2023-04-30T10:58:35;94222.19;;;13.77;99.70
59009;BME280;44794;42.652;23.318;2023-04-30T11:01:09;94219.88;;;14.29;100.00
59009;BME280;44794;42.652;23.318;2023-04-30T11:03:36;94249.19;;;14.77;93.98
59009;BME280;44794;42.652;23.318;2023-04-30T11:06:15;94248.22;;;15.22;91.28
59009;BME280;44794;42.652;23.318;2023-04-30T11:08:45;94259.53;;;15.57;87.71
59009;BME280;44794;42.652;23.318;2023-04-30T11:11:12;94265.22;;;16.13;85.77
59009;BME280;44794;42.652;23.318;2023-04-30T11:13:58;94304.47;;;16.55;73.28
59009;BME280;44794;42.652;23.318;2023-04-30T11:16:29;94305.84;;;16.93;69.27
59009;BME280;44794;42.652;23.318;2023-04-30T11:19:05;94304.66;;;17.29;67.19
59009;BME280;44794;42.652;23.318;2023-04-30T11:21:31;94310.50;;;17.72;63.71
59009;BME280;44794;42.652;23.318;2023-04-30T11:24:04;94303.63;;;18.18;57.07
59009;BME280;44794;42.652;23.318;2023-04-30T11:27:02;94305.25;;;18.51;55.67
59009;BME280;44794;42.652;23.318;2023-04-30T11:29:29;94306.19;;;18.74;55.21
59009;BME280;44794;42.652;23.318;2023-04-30T11:31:59;94304.09;;;19.24;56.83
59009;BME280;44794;42.652;23.318;2023-04-30T11:34:25;94309.41;;;19.68;52.11
59009;BME280;44794;42.652;23.318;2023-04-30T11:36:53;94311.66;;;19.57;50.42
59009;BME280;44794;42.652;23.318;2023-04-30T11:39:23;94318.81;;;18.94;46.43
59009;BME280;44794;42.652;23.318;2023-04-30T11:41:50;94320.88;;;18.53;46.63
59009;BME280;44794;42.652;23.318;2023-04-30T11:44:25;94310.97;;;18.71;47.88
59009;BME280;44794;42.652;23.318;2023-04-30T11:46:51;94306.09;;;18.60;47.54
59009;BME280;44794;42.652;23.318;2023-04-30T11:49:19;94309.34;;;18.54;46.77
59009;BME280;44794;42.652;23.318;2023-04-30T11:51:48;94314.78;;;18.52;47.25
59009;BME280;44794;42.652;23.318;2023-04-30T11:54:14;94302.31;;;18.30;49.80
59009;BME280;44794;42.652;23.318;2023-04-30T11:56:45;94291.59;;;18.56;53.35
59009;BME280;44794;42.652;23.318;2023-04-30T11:59:12;94289.97;;;18.47;51.31
59009;BME280;44794;42.652;23.318;2023-04-30T12:01:38;94292.56;;;18.71;52.45
59009;BME280;44794;42.652;23.318;2023-04-30T12:04:04;94292.84;;;18.83;50.47
59009;BME280;44794;42.652;23.318;2023-04-30T12:06:30;94288.50;;;19.06;51.02
59009;BME280;44794;42.652;23.318;2023-04-30T12:08:58;94276.66;;;19.41;55.09
59009;BME280;44794;42.652;23.318;2023-04-30T12:11:29;94274.84;;;19.03;52.83
59009;BME280;44794;42.652;23.318;2023-04-30T12:13:59;94279.19;;;18.88;51.70
59009;BME280;44794;42.652;23.318;2023-04-30T12:16:27;94286.00;;;18.67;52.15
59009;BME280;44794;42.652;23.318;2023-04-30T12:18:52;94286.22;;;18.33;54.23
59009;BME280;44794;42.652;23.318;2023-04-30T12:21:19;94292.47;;;17.85;54.23
59009;BME280;44794;42.652;23.318;2023-04-30T12:23:46;94298.16;;;17.64;54.46
59009;BME280;44794;42.652;23.318;2023-04-30T12:26:11;94299.84;;;17.16;56.74
59009;BME280;44794;42.652;23.318;2023-04-30T12:28:37;94314.59;;;16.76;59.48
59009;BME280;44794;42.652;23.318;2023-04-30T12:31:03;94318.13;;;16.34;60.56
59009;BME280;44794;42.652;23.318;2023-04-30T12:33:31;94295.13;;;16.10;66.75
59009;BME280;44794;42.652;23.318;2023-04-30T12:35:56;94294.91;;;15.78;71.22
59009;BME280;44794;42.652;23.318;2023-04-30T12:38:23;94312.72;;;15.13;71.71
59009;BME280;44794;42.652;23.318;2023-04-30T12:40:49;94306.94;;;15.10;71.96
59009;BME280;44794;42.652;23.318;2023-04-30T12:43:15;94301.94;;;15.26;73.95
59009;BME280;44794;42.652;23.318;2023-04-30T12:45:48;94309.56;;;15.37;70.90
59009;BME280;44794;42.652;23.318;2023-04-30T12:48:19;94305.28;;;15.71;70.34
59009;BME280;44794;42.652;23.318;2023-04-30T12:51:02;94323.56;;;16.23;68.55
59009;BME280;44794;42.652;23.318;2023-04-30T12:53:30;94322.00;;;16.80;66.43
59009;BME280;44794;42.652;23.318;2023-04-30T12:56:15;94327.41;;;16.87;60.06
59009;BME280;44794;42.652;23.318;2023-04-30T12:58:45;94329.16;;;17.04;60.27
59009;BME280;44794;42.652;23.318;2023-04-30T13:01:12;94326.69;;;17.43;57.57
59009;BME280;44794;42.652;23.318;2023-04-30T13:03:39;94318.38;;;17.64;58.25
59009;BME280;44794;42.652;23.318;2023-04-30T13:06:05;94323.00;;;18.09;56.67
59009;BME280;44794;42.652;23.318;2023-04-30T13:08:31;94322.19;;;18.49;56.36
59009;BME280;44794;42.652;23.318;2023-04-30T13:10:58;94322.50;;;18.14;54.69
59009;BME280;44794;42.652;23.318;2023-04-30T13:13:25;94304.78;;;18.00;55.81